createdAt,value
2019-02-27T08:58:29.713Z,20.70
2019-02-27T08:59:27.416Z,20.30
2019-02-27T09:00:27.489Z,20.20
2019-02-27T09:01:27.442Z,20.50
2019-02-27T09:02:29.506Z,19.80
2019-02-27T09:03:27.369Z,21.00
2019-02-27T09:04:27.394Z,21.10
2019-02-27T09:05:27.366Z,19.30
2019-02-27T09:06:28.192Z,18.80
2019-02-27T09:07:27.349Z,20.30
2019-02-27T09:08:27.405Z,20.10
2019-02-27T09:09:27.351Z,20.60
2019-02-27T09:10:30.510Z,20.00
2019-02-27T09:11:30.665Z,20.20
2019-02-27T09:12:27.329Z,21.50
2019-02-27T09:13:27.337Z,18.90
2019-02-27T09:14:27.244Z,20.70
2019-02-27T09:15:27.248Z,20.50
2019-02-27T09:16:27.327Z,19.60
2019-02-27T09:17:27.874Z,19.70
2019-02-27T09:18:27.217Z,19.40
2019-02-27T09:19:27.239Z,19.60
2019-02-27T09:20:27.190Z,19.30
2019-02-27T09:21:28.014Z,19.60
2019-02-27T09:22:27.199Z,20.70
2019-02-27T09:23:27.167Z,18.70
2019-02-27T09:24:27.141Z,19.40
2019-02-27T09:25:27.152Z,20.70
2019-02-27T09:26:27.116Z,19.90
2019-02-27T09:27:28.290Z,20.30
2019-02-27T09:28:27.104Z,19.20
2019-02-27T09:29:27.088Z,19.90
2019-02-27T09:30:29.473Z,20.90
2019-02-27T09:31:27.063Z,21.20
2019-02-27T09:32:27.122Z,19.30
2019-02-27T09:33:27.076Z,20.00
2019-02-27T09:34:27.510Z,19.80
2019-02-27T09:35:27.023Z,20.70
2019-02-27T09:36:27.022Z,22.70
2019-02-27T09:37:27.016Z,22.30
2019-02-27T09:38:27.016Z,21.00
2019-02-27T09:39:30.640Z,22.00
2019-02-27T09:40:27.010Z,18.60
2019-02-27T09:41:26.991Z,20.80
2019-02-27T09:42:26.994Z,21.70
2019-02-27T09:43:27.225Z,20.30
2019-02-27T09:44:26.926Z,20.30
2019-02-27T09:45:26.935Z,19.30
2019-02-27T09:46:26.920Z,19.60
2019-02-27T09:47:26.897Z,19.30
2019-02-27T09:48:26.931Z,17.80
2019-02-27T09:49:26.881Z,19.00
2019-02-27T09:50:26.878Z,19.70
2019-02-27T09:51:26.901Z,19.50
2019-02-27T09:52:27.859Z,18.40
2019-02-27T09:53:26.843Z,18.90
2019-02-27T09:54:26.845Z,18.90
2019-02-27T09:55:27.101Z,19.50
2019-02-27T09:56:29.213Z,19.40
2019-02-27T09:57:27.654Z,18.60
2019-02-27T09:58:26.781Z,19.60
2019-02-27T09:59:56.017Z,21.20
2019-02-27T10:00:26.870Z,18.60
2019-02-27T10:01:26.769Z,18.50
2019-02-27T10:02:26.822Z,19.40
2019-02-27T10:03:27.363Z,20.00
2019-02-27T10:04:28.956Z,19.90
2019-02-27T10:05:26.749Z,20.70
2019-02-27T10:06:26.699Z,19.50
2019-02-27T10:07:26.691Z,20.50
2019-02-27T10:08:26.978Z,20.60
2019-02-27T10:09:26.703Z,19.50
2019-02-27T10:10:26.765Z,20.10
2019-02-27T10:11:27.714Z,19.90
2019-02-27T10:12:59.829Z,20.30
2019-02-27T10:13:26.706Z,20.40
2019-02-27T10:14:26.693Z,19.60
2019-02-27T10:15:26.742Z,18.60
2019-02-27T10:16:26.683Z,18.60
2019-02-27T10:17:28.547Z,18.90
2019-02-27T10:18:26.595Z,18.30
2019-02-27T10:19:27.620Z,18.90
2019-02-27T10:20:26.551Z,18.30
2019-02-27T10:21:26.571Z,18.30
2019-02-27T10:22:26.522Z,18.30
2019-02-27T10:23:30.460Z,17.40
2019-02-27T10:24:26.543Z,18.20
2019-02-27T10:25:26.500Z,17.00
2019-02-27T10:26:26.693Z,16.30
2019-02-27T10:27:28.698Z,16.70
2019-02-27T10:28:26.468Z,16.90
2019-02-27T10:29:26.465Z,16.90
2019-02-27T10:30:26.438Z,16.30
2019-02-27T10:31:27.010Z,16.20
2019-02-27T10:32:26.503Z,16.70
2019-02-27T10:33:26.412Z,18.10
2019-02-27T10:34:26.391Z,16.20
2019-02-27T10:35:26.849Z,17.50
2019-02-27T10:36:26.448Z,17.30
2019-02-27T10:37:26.404Z,16.50
2019-02-27T10:38:26.854Z,17.10
2019-02-27T10:39:26.338Z,17.40
2019-02-27T10:40:26.348Z,16.30
2019-02-27T10:41:26.471Z,16.10
2019-02-27T10:42:26.327Z,15.90
2019-02-27T10:43:26.417Z,16.90
2019-02-27T10:44:26.322Z,16.20
2019-02-27T10:45:26.289Z,16.50
2019-02-27T10:46:26.284Z,16.70
2019-02-27T10:47:26.287Z,16.10
2019-02-27T10:48:26.241Z,16.20
2019-02-27T10:49:26.318Z,17.00
2019-02-27T10:50:26.249Z,17.30
2019-02-27T10:51:26.217Z,16.80
2019-02-27T10:52:26.253Z,16.80
2019-02-27T10:53:27.464Z,17.10
2019-02-27T10:54:26.307Z,17.70
2019-02-27T10:55:27.049Z,17.60
2019-02-27T10:56:26.188Z,17.80
2019-02-27T10:57:31.424Z,17.30
2019-02-27T10:58:27.148Z,18.50
2019-02-27T10:59:26.140Z,17.70
2019-02-27T11:00:26.134Z,18.20
2019-02-27T11:01:26.214Z,18.40
2019-02-27T11:02:26.159Z,18.70
2019-02-27T11:03:27.314Z,19.20
2019-02-27T11:04:26.188Z,19.40
2019-02-27T11:05:26.498Z,19.00
2019-02-27T11:06:33.699Z,17.50
2019-02-27T11:07:27.162Z,19.40
2019-02-27T11:08:28.900Z,19.00
2019-02-27T11:09:26.064Z,19.40
2019-02-27T11:10:26.039Z,19.50
2019-02-27T11:11:26.050Z,20.20
2019-02-27T11:12:26.855Z,19.20
2019-02-27T11:13:26.785Z,19.10
2019-02-27T11:14:26.021Z,18.50
2019-02-27T11:15:26.100Z,19.80
2019-02-27T11:16:27.898Z,18.90
2019-02-27T11:17:25.998Z,18.60
2019-02-27T11:18:26.073Z,18.50
2019-02-27T11:19:25.931Z,19.30
2019-02-27T11:20:25.977Z,19.00
2019-02-27T11:21:25.911Z,18.40
2019-02-27T11:22:25.903Z,18.20
2019-02-27T11:23:25.943Z,18.30
2019-02-27T11:24:25.942Z,18.30
2019-02-27T11:25:25.951Z,18.90
2019-02-27T11:26:25.870Z,18.60
2019-02-27T11:27:25.825Z,18.20
2019-02-27T11:28:25.826Z,19.30
2019-02-27T11:29:25.911Z,18.30
2019-02-27T11:30:25.814Z,18.90
2019-02-27T11:31:25.841Z,19.90
2019-02-27T11:32:25.806Z,18.70
2019-02-27T11:33:26.183Z,19.20
2019-02-27T11:34:25.779Z,18.50
2019-02-27T11:35:26.049Z,19.20
2019-02-27T11:36:25.760Z,18.50
2019-02-27T11:37:25.748Z,19.10
2019-02-27T11:38:25.727Z,19.20
2019-02-27T11:39:25.762Z,19.20
2019-02-27T11:40:27.645Z,18.80
2019-02-27T11:41:25.727Z,17.70
2019-02-27T11:42:25.686Z,18.60
2019-02-27T11:43:25.707Z,18.50
2019-02-27T11:44:25.656Z,18.30
2019-02-27T11:45:25.748Z,16.80
2019-02-27T11:46:25.658Z,17.20
2019-02-27T11:47:25.622Z,17.30
2019-02-27T11:48:25.646Z,17.90
2019-02-27T11:49:25.609Z,17.80
2019-02-27T11:50:25.649Z,15.80
2019-02-27T11:51:25.588Z,16.80
2019-02-27T11:52:28.728Z,16.30
2019-02-27T11:53:25.595Z,16.70
2019-02-27T11:54:25.659Z,17.30
2019-02-27T11:55:25.563Z,17.20
2019-02-27T11:56:25.553Z,15.60
2019-02-27T11:57:27.294Z,16.10
2019-02-27T11:58:25.535Z,16.10
2019-02-27T11:59:25.493Z,16.20
2019-02-27T12:00:25.516Z,17.10
2019-02-27T12:01:25.467Z,16.80
2019-02-27T12:02:29.040Z,16.20
2019-02-27T12:03:26.492Z,17.50
2019-02-27T12:04:25.484Z,16.60
2019-02-27T12:05:30.314Z,17.30
2019-02-27T12:06:26.519Z,16.80
2019-02-27T12:07:25.435Z,16.70
2019-02-27T12:08:26.774Z,16.10
2019-02-27T12:09:25.396Z,15.30
2019-02-27T12:10:25.512Z,15.90
2019-02-27T12:11:25.446Z,15.30
2019-02-27T12:12:25.366Z,14.40
2019-02-27T12:13:25.501Z,15.40
2019-02-27T12:14:25.427Z,16.00
2019-02-27T12:15:27.233Z,15.80
2019-02-27T12:16:25.501Z,15.70
2019-02-27T12:17:25.724Z,14.80
2019-02-27T12:18:25.334Z,15.20
2019-02-27T12:19:25.366Z,14.10
2019-02-27T12:20:25.346Z,12.90
2019-02-27T12:21:26.221Z,12.10
2019-02-27T12:22:25.320Z,13.00
2019-02-27T12:23:25.286Z,12.70
2019-02-27T12:24:25.277Z,13.90
2019-02-27T12:25:29.023Z,12.90
2019-02-27T12:26:25.258Z,12.60
2019-02-27T12:27:47.789Z,12.70
2019-02-27T12:28:26.223Z,12.10
2019-02-27T12:29:26.597Z,11.90
2019-02-27T12:30:25.215Z,10.20
2019-02-27T12:31:25.218Z,10.80
2019-02-27T12:32:25.224Z,10.70
2019-02-27T12:33:29.184Z,10.70
2019-02-27T12:34:25.276Z,11.00
2019-02-27T12:35:25.229Z,11.50
2019-02-27T12:36:25.118Z,11.30
2019-02-27T12:37:28.447Z,11.40
2019-02-27T12:38:25.293Z,12.50
2019-02-27T12:39:25.242Z,12.60
2019-02-27T12:40:25.286Z,12.70
2019-02-27T12:41:25.234Z,11.90
2019-02-27T12:42:25.100Z,12.20
2019-02-27T12:43:25.105Z,11.70
2019-02-27T12:44:25.103Z,10.50
2019-02-27T12:45:25.768Z,8.60
2019-02-27T12:46:25.034Z,8.80
2019-02-27T12:47:25.051Z,8.80
2019-02-27T12:48:25.129Z,7.80
2019-02-27T12:49:24.991Z,7.20
2019-02-27T12:50:26.867Z,7.70
2019-02-27T12:51:25.956Z,9.00
2019-02-27T12:52:24.997Z,8.50
2019-02-27T12:53:24.971Z,8.90
2019-02-27T12:54:26.835Z,9.10
2019-02-27T12:55:24.971Z,9.70
2019-02-27T12:56:24.900Z,8.40
2019-02-27T12:57:24.874Z,7.00
2019-02-27T12:58:25.265Z,7.90
2019-02-27T12:59:25.014Z,8.60
2019-02-27T13:00:25.083Z,8.60
2019-02-27T13:01:24.841Z,7.40
2019-02-27T13:02:35.304Z,8.10
2019-02-27T13:03:25.916Z,8.20
2019-02-27T13:04:25.032Z,8.80
2019-02-27T13:05:27.309Z,9.60
2019-02-27T13:06:24.865Z,10.10
2019-02-27T13:07:24.848Z,9.70
2019-02-27T13:08:24.929Z,9.50
2019-02-27T13:09:25.315Z,9.80
2019-02-27T13:10:24.768Z,9.70
2019-02-27T13:11:24.788Z,10.20
2019-02-27T13:12:24.856Z,9.00
2019-02-27T13:13:25.865Z,9.30
2019-02-27T13:14:24.806Z,9.10
2019-02-27T13:15:24.709Z,8.90
2019-02-27T13:16:24.718Z,7.90
2019-02-27T13:17:24.695Z,7.60
2019-02-27T13:18:24.659Z,8.00
2019-02-27T13:19:24.685Z,8.10
2019-02-27T13:20:24.713Z,8.50
2019-02-27T13:21:24.681Z,9.20
2019-02-27T13:22:26.262Z,8.90
2019-02-27T13:23:24.625Z,8.40
2019-02-27T13:24:24.600Z,8.30
2019-02-27T13:25:24.909Z,8.40
2019-02-27T13:26:24.579Z,8.50
2019-02-27T13:27:25.193Z,8.50
2019-02-27T13:28:24.540Z,8.50
2019-02-27T13:29:24.544Z,8.30
2019-02-27T13:30:24.595Z,9.10
2019-02-27T13:31:24.553Z,8.20
2019-02-27T13:32:27.302Z,8.20
2019-02-27T13:33:24.491Z,8.90
2019-02-27T13:34:24.512Z,8.10
2019-02-27T13:35:24.463Z,8.60
2019-02-27T13:36:24.480Z,9.40
2019-02-27T13:37:24.474Z,8.90
2019-02-27T13:38:24.506Z,8.80
2019-02-27T13:39:25.596Z,9.30
2019-02-27T13:40:24.407Z,8.50
2019-02-27T13:41:25.956Z,8.70
2019-02-27T13:42:24.416Z,8.40
2019-02-27T13:43:27.139Z,8.30
2019-02-27T13:44:24.369Z,8.90
2019-02-27T13:45:24.364Z,8.80
2019-02-27T13:46:24.371Z,9.60
2019-02-27T13:47:24.339Z,9.00
2019-02-27T13:48:24.363Z,8.60
2019-02-27T13:49:25.866Z,8.50
2019-02-27T13:50:26.713Z,9.30
2019-02-27T13:51:24.347Z,8.40
2019-02-27T13:52:25.627Z,8.40
2019-02-27T13:53:26.627Z,9.00
2019-02-27T13:54:24.261Z,8.30
2019-02-27T13:55:24.301Z,8.70
2019-02-27T13:56:25.167Z,8.80
2019-02-27T13:57:25.737Z,9.30
2019-02-27T13:58:24.221Z,8.80
2019-02-27T13:59:24.228Z,9.40
2019-02-27T14:00:25.816Z,9.70
2019-02-27T14:01:25.106Z,9.60
2019-02-27T14:02:24.253Z,9.20
2019-02-27T14:03:24.180Z,8.90
2019-02-27T14:04:24.191Z,8.70
2019-02-27T14:05:24.143Z,9.40
2019-02-27T14:06:24.171Z,9.20
2019-02-27T14:07:24.265Z,9.10
2019-02-27T14:08:24.124Z,9.30
2019-02-27T14:09:24.174Z,9.50
2019-02-27T14:10:24.092Z,9.30
2019-02-27T14:11:24.870Z,9.60
2019-02-27T14:12:24.065Z,9.90
2019-02-27T14:13:24.220Z,9.90
2019-02-27T14:14:24.057Z,9.50
2019-02-27T14:15:26.751Z,10.60
2019-02-27T14:16:24.161Z,9.90
2019-02-27T14:17:24.027Z,10.10
2019-02-27T14:18:23.996Z,9.90
2019-02-27T14:19:24.491Z,10.20
2019-02-27T14:20:27.019Z,9.80
2019-02-27T14:21:23.973Z,9.60
2019-02-27T14:22:23.990Z,9.80
2019-02-27T14:23:23.939Z,9.90
2019-02-27T14:24:23.969Z,10.10
2019-02-27T14:25:28.450Z,10.50
2019-02-27T14:26:24.903Z,10.20
2019-02-27T14:27:24.002Z,10.40
2019-02-27T14:28:23.903Z,10.20
2019-02-27T14:29:26.058Z,10.40
2019-02-27T14:30:24.868Z,9.60
2019-02-27T14:31:23.902Z,9.70
2019-02-27T14:32:23.935Z,9.40
2019-02-27T14:33:23.866Z,9.60
2019-02-27T14:34:27.145Z,9.20
2019-02-27T14:35:23.809Z,9.90
2019-02-27T14:36:23.825Z,9.00
2019-02-27T14:37:23.821Z,8.60
2019-02-27T14:38:23.783Z,8.10
2019-02-27T14:39:23.765Z,7.90
2019-02-27T14:40:23.761Z,8.20
2019-02-27T14:41:23.761Z,8.60
2019-02-27T14:42:23.765Z,7.80
2019-02-27T14:43:26.900Z,7.50
2019-02-27T14:44:23.725Z,8.10
2019-02-27T14:45:23.751Z,7.70
2019-02-27T14:46:23.735Z,7.40
2019-02-27T14:47:25.277Z,7.60
2019-02-27T14:48:23.674Z,7.60
2019-02-27T14:49:26.962Z,7.40
2019-02-27T14:50:23.646Z,7.30
2019-02-27T14:51:23.664Z,7.60
2019-02-27T14:52:24.152Z,8.20
2019-02-27T14:53:23.665Z,7.90
2019-02-27T14:54:28.781Z,8.00
2019-02-27T14:55:24.622Z,7.90
2019-02-27T14:56:23.613Z,7.50
2019-02-27T14:57:24.110Z,7.30
2019-02-27T14:58:24.361Z,8.00
2019-02-27T14:59:23.735Z,7.80
2019-02-27T15:00:24.489Z,7.70
2019-02-27T15:01:23.569Z,7.40
2019-02-27T15:02:23.576Z,7.40
2019-02-27T15:03:29.261Z,8.00
2019-02-27T15:04:24.556Z,7.70
2019-02-27T15:05:23.489Z,7.90
2019-02-27T15:06:23.710Z,7.70
2019-02-27T15:07:23.491Z,7.60
2019-02-27T15:08:25.174Z,7.80
2019-02-27T15:09:23.475Z,7.90
2019-02-27T15:10:23.420Z,7.50
2019-02-27T15:11:23.682Z,7.50
2019-02-27T15:12:23.402Z,7.00
2019-02-27T15:13:28.162Z,7.50
2019-02-27T15:14:24.541Z,7.60
2019-02-27T15:15:23.660Z,7.70
2019-02-27T15:16:23.373Z,7.70
2019-02-27T15:17:23.805Z,8.40
2019-02-27T15:18:23.388Z,7.70
2019-02-27T15:19:23.369Z,7.50
2019-02-27T15:20:23.357Z,8.20
2019-02-27T15:21:23.342Z,7.80
2019-02-27T15:22:23.336Z,7.90
2019-02-27T15:23:24.609Z,7.90
2019-02-27T15:24:23.342Z,7.60
2019-02-27T15:25:24.506Z,8.10
2019-02-27T15:26:23.733Z,7.80
2019-02-27T15:27:25.012Z,8.50
2019-02-27T15:28:23.268Z,8.50
2019-02-27T15:29:23.260Z,8.70
2019-02-27T15:30:23.209Z,8.70
2019-02-27T15:31:23.236Z,8.10
2019-02-27T15:32:23.188Z,8.30
2019-02-27T15:33:23.265Z,8.70
2019-02-27T15:34:23.285Z,8.70
2019-02-27T15:35:23.337Z,8.60
2019-02-27T15:36:23.149Z,9.10
2019-02-27T15:37:23.169Z,9.20
2019-02-27T15:38:23.162Z,9.10
2019-02-27T15:39:23.255Z,8.60
2019-02-27T15:40:23.105Z,9.00
2019-02-27T15:41:23.325Z,9.00
2019-02-27T15:42:23.158Z,9.70
2019-02-27T15:43:23.080Z,9.10
2019-02-27T15:44:23.078Z,9.20
2019-02-27T15:45:23.066Z,8.90
2019-02-27T15:46:23.094Z,9.20
2019-02-27T15:47:23.041Z,8.70
2019-02-27T15:48:23.038Z,8.60
2019-02-27T15:49:23.047Z,9.60
2019-02-27T15:50:23.584Z,9.10
2019-02-27T15:51:23.021Z,8.80
2019-02-27T15:52:23.214Z,8.90
2019-02-27T15:53:22.994Z,9.80
2019-02-27T15:54:24.710Z,9.80
2019-02-27T15:55:22.948Z,8.50
2019-02-27T15:56:22.929Z,9.20
2019-02-27T15:57:22.952Z,9.60
2019-02-27T15:58:25.352Z,9.40
2019-02-27T15:59:23.999Z,9.40
2019-02-27T16:00:22.945Z,9.60
2019-02-27T16:01:24.723Z,9.50
2019-02-27T16:02:23.872Z,9.70
2019-02-27T16:03:23.046Z,9.70
2019-02-27T16:04:22.894Z,9.30
2019-02-27T16:05:22.879Z,10.10
2019-02-27T16:06:23.212Z,9.70
2019-02-27T16:07:22.826Z,10.00
2019-02-27T16:08:23.428Z,10.10
2019-02-27T16:09:22.814Z,10.40
2019-02-27T16:10:22.830Z,10.00
2019-02-27T16:11:22.801Z,10.10
2019-02-27T16:12:25.354Z,9.90
2019-02-27T16:13:22.886Z,11.40
2019-02-27T16:14:22.788Z,11.50
2019-02-27T16:15:22.723Z,11.50
2019-02-27T16:16:23.454Z,10.80
2019-02-27T16:17:22.717Z,10.80
2019-02-27T16:18:22.785Z,12.10
2019-02-27T16:19:22.684Z,11.50
2019-02-27T16:20:22.697Z,11.30
2019-02-27T16:21:23.713Z,10.40
2019-02-27T16:22:22.655Z,10.20
2019-02-27T16:23:22.656Z,10.30
2019-02-27T16:24:22.750Z,9.90
2019-02-27T16:25:22.633Z,9.00
2019-02-27T16:26:27.004Z,9.50
2019-02-27T16:27:23.634Z,9.50
2019-02-27T16:28:22.571Z,8.70
2019-02-27T16:29:23.581Z,9.60
2019-02-27T16:30:22.653Z,9.30
2019-02-27T16:31:22.680Z,8.70
2019-02-27T16:32:22.544Z,9.30
2019-02-27T16:33:24.018Z,9.70
2019-02-27T16:34:22.529Z,9.80
2019-02-27T16:35:22.502Z,9.30
2019-02-27T16:36:23.453Z,9.40
2019-02-27T16:37:23.088Z,9.60
2019-02-27T16:38:22.461Z,8.70
2019-02-27T16:39:22.460Z,9.80
2019-02-27T16:40:22.447Z,9.20
2019-02-27T16:41:27.907Z,9.80
2019-02-27T16:42:22.639Z,9.80
2019-02-27T16:43:22.427Z,10.20
2019-02-27T16:44:22.794Z,9.40
2019-02-27T16:45:22.407Z,9.10
2019-02-27T16:46:22.912Z,9.50
2019-02-27T16:47:23.744Z,9.80
2019-02-27T16:48:22.372Z,9.40
2019-02-27T16:49:22.366Z,9.00
2019-02-27T16:50:24.746Z,9.30
2019-02-27T16:51:22.329Z,9.30
2019-02-27T16:52:22.366Z,9.40
2019-02-27T16:53:22.347Z,10.30
2019-02-27T16:54:24.045Z,9.20
2019-02-27T16:55:22.276Z,9.30
2019-02-27T16:56:22.268Z,10.00
2019-02-27T16:57:24.509Z,9.60
2019-02-27T16:58:22.272Z,10.40
2019-02-27T16:59:22.230Z,10.60
2019-02-27T17:00:22.224Z,11.50
2019-02-27T17:01:22.210Z,10.00
2019-02-27T17:02:22.202Z,9.60
2019-02-27T17:03:22.235Z,10.00
2019-02-27T17:04:22.234Z,9.90
2019-02-27T17:05:22.162Z,10.60
2019-02-27T17:06:22.164Z,10.30
2019-02-27T17:07:25.520Z,11.40
2019-02-27T17:08:22.182Z,10.30
2019-02-27T17:09:22.138Z,11.60
2019-02-27T17:10:22.118Z,12.50
2019-02-27T17:11:22.110Z,11.30
2019-02-27T17:12:22.121Z,11.40
2019-02-27T17:13:22.120Z,12.30
2019-02-27T17:14:24.552Z,12.10
2019-02-27T17:15:22.075Z,12.30
2019-02-27T17:16:22.044Z,12.20
2019-02-27T17:17:22.037Z,12.80
2019-02-27T17:18:28.079Z,13.30
2019-02-27T17:19:22.035Z,12.50
2019-02-27T17:20:23.966Z,13.70
2019-02-27T17:21:23.115Z,12.10
2019-02-27T17:22:22.084Z,14.00
2019-02-27T17:23:21.975Z,16.40
2019-02-27T17:24:22.100Z,13.80
2019-02-27T17:25:22.012Z,12.40
2019-02-27T17:26:21.944Z,12.70
2019-02-27T17:27:21.936Z,11.90
2019-02-27T17:28:21.972Z,11.90
2019-02-27T17:29:22.822Z,12.10
2019-02-27T17:30:21.916Z,12.10
2019-02-27T17:31:21.913Z,12.20
2019-02-27T17:32:21.895Z,12.50
2019-02-27T17:33:21.960Z,12.80
2019-02-27T17:34:21.982Z,12.10
2019-02-27T17:35:23.608Z,13.00
2019-02-27T17:36:21.845Z,12.80
2019-02-27T17:37:21.825Z,13.20
2019-02-27T17:38:21.888Z,12.60
2019-02-27T17:39:26.429Z,13.40
2019-02-27T17:40:22.848Z,13.20
2019-02-27T17:41:21.817Z,12.80
2019-02-27T17:42:21.766Z,13.00
2019-02-27T17:43:21.792Z,13.10
2019-02-27T17:44:21.747Z,14.90
2019-02-27T17:45:22.737Z,14.30
2019-02-27T17:46:21.706Z,15.50
2019-02-27T17:47:21.734Z,16.80
2019-02-27T17:48:21.704Z,17.20
2019-02-27T17:49:22.158Z,17.20
2019-02-27T17:50:21.776Z,16.70
2019-02-27T17:51:21.725Z,15.60
2019-02-27T17:52:21.653Z,16.40
2019-02-27T17:53:22.891Z,15.70
2019-02-27T17:54:21.682Z,16.30
2019-02-27T17:55:21.651Z,15.60
2019-02-27T17:56:21.601Z,15.70
2019-02-27T17:57:25.024Z,16.60
2019-02-27T17:58:21.582Z,16.00
2019-02-27T17:59:21.577Z,15.80
2019-02-27T18:00:21.641Z,16.60
2019-02-27T18:01:25.014Z,16.60
2019-02-27T18:02:21.534Z,17.60
2019-02-27T18:03:21.539Z,17.60
2019-02-27T18:04:21.571Z,17.70
2019-02-27T18:05:22.306Z,17.50
2019-02-27T18:06:21.491Z,16.90
2019-02-27T18:07:21.528Z,17.20
2019-02-27T18:08:21.494Z,16.50
2019-02-27T18:09:23.539Z,16.10
2019-02-27T18:10:21.488Z,16.80
2019-02-27T18:11:21.437Z,16.50
2019-02-27T18:12:21.654Z,17.40
2019-02-27T18:13:21.484Z,17.60
2019-02-27T18:14:21.422Z,17.00
2019-02-27T18:15:21.475Z,16.90
2019-02-27T18:16:21.412Z,16.90
2019-02-27T18:17:21.407Z,18.00
2019-02-27T18:18:21.368Z,17.70
2019-02-27T18:19:21.367Z,17.40
2019-02-27T18:20:24.455Z,17.80
2019-02-27T18:21:21.369Z,18.30
2019-02-27T18:22:21.343Z,17.50
2019-02-27T18:23:21.930Z,17.00
2019-02-27T18:24:21.306Z,18.50
2019-02-27T18:25:22.240Z,18.30
2019-02-27T18:26:21.281Z,19.00
2019-02-27T18:27:24.715Z,19.00
2019-02-27T18:28:21.258Z,18.40
2019-02-27T18:29:21.318Z,19.50
2019-02-27T18:30:21.343Z,18.50
2019-02-27T18:31:21.227Z,19.10
2019-02-27T18:32:21.240Z,19.30
2019-02-27T18:33:21.272Z,20.00
2019-02-27T18:34:21.750Z,19.20
2019-02-27T18:35:21.206Z,19.00
2019-02-27T18:36:21.249Z,19.60
2019-02-27T18:37:21.162Z,19.60
2019-02-27T18:38:21.143Z,19.30
2019-02-27T18:39:21.156Z,19.00
2019-02-27T18:40:21.176Z,20.60
2019-02-27T18:41:21.148Z,21.60
2019-02-27T18:42:21.376Z,22.50
2019-02-27T18:43:21.092Z,22.30
2019-02-27T18:44:21.079Z,24.00
2019-02-27T18:45:21.167Z,24.20
2019-02-27T18:46:24.429Z,23.10
2019-02-27T18:47:21.110Z,22.80
2019-02-27T18:48:21.126Z,21.80
2019-02-27T18:49:21.088Z,21.90
2019-02-27T18:50:24.857Z,21.40
2019-02-27T18:51:21.028Z,21.50
2019-02-27T18:52:21.596Z,21.10
2019-02-27T18:53:21.036Z,20.20
2019-02-27T18:54:22.870Z,19.90
2019-02-27T18:55:20.955Z,19.80
2019-02-27T18:56:21.029Z,20.00
2019-02-27T18:57:20.941Z,19.60
2019-02-27T18:58:21.582Z,19.60
2019-02-27T18:59:20.929Z,19.60
2019-02-27T19:00:20.991Z,19.70
2019-02-27T19:01:20.934Z,19.40
2019-02-27T19:02:20.920Z,18.90
2019-02-27T19:03:25.425Z,19.20
2019-02-27T19:04:20.854Z,19.60
2019-02-27T19:05:20.856Z,19.60
2019-02-27T19:06:20.864Z,19.90
2019-02-27T19:07:20.861Z,19.60
2019-02-27T19:08:20.870Z,19.90
2019-02-27T19:09:20.813Z,19.40
2019-02-27T19:10:20.803Z,20.40
2019-02-27T19:11:22.441Z,21.00
2019-02-27T19:12:24.997Z,21.20
2019-02-27T19:13:21.764Z,20.30
2019-02-27T19:14:20.747Z,19.70
2019-02-27T19:15:22.061Z,20.20
2019-02-27T19:16:21.503Z,20.00
2019-02-27T19:17:20.750Z,20.00
2019-02-27T19:18:20.718Z,20.40
2019-02-27T19:19:20.686Z,19.40
2019-02-27T19:20:23.828Z,20.60
2019-02-27T19:21:20.700Z,20.10
2019-02-27T19:22:20.669Z,21.10
2019-02-27T19:23:20.648Z,21.10
2019-02-27T19:24:26.551Z,21.50
2019-02-27T19:25:21.628Z,22.00
2019-02-27T19:26:20.704Z,21.80
2019-02-27T19:27:20.639Z,21.40
2019-02-27T19:28:24.453Z,21.40
2019-02-27T19:29:20.588Z,21.40
2019-02-27T19:30:20.585Z,21.20
2019-02-27T19:31:20.606Z,21.50
2019-02-27T19:32:23.107Z,22.30
2019-02-27T19:33:20.587Z,21.80
2019-02-27T19:34:20.593Z,21.90
2019-02-27T19:35:21.859Z,21.90
2019-02-27T19:36:20.600Z,22.10
2019-02-27T19:37:20.530Z,21.40
2019-02-27T19:38:20.515Z,22.90
2019-02-27T19:39:21.862Z,21.40
2019-02-27T19:40:20.470Z,20.80
2019-02-27T19:41:20.499Z,22.00
2019-02-27T19:42:20.491Z,21.60
2019-02-27T19:43:21.153Z,21.40
2019-02-27T19:44:20.468Z,22.00
2019-02-27T19:45:20.561Z,22.10
2019-02-27T19:46:20.503Z,22.30
2019-02-27T19:47:20.447Z,22.80
2019-02-27T19:48:20.586Z,22.80
2019-02-27T19:49:20.401Z,23.60
2019-02-27T19:50:20.474Z,22.70
2019-02-27T19:51:20.998Z,22.50
2019-02-27T19:52:20.364Z,23.50
2019-02-27T19:53:20.324Z,23.40
2019-02-27T19:54:20.317Z,23.50
2019-02-27T19:55:20.371Z,24.60
2019-02-27T19:56:20.367Z,25.00
2019-02-27T19:57:20.317Z,24.80
2019-02-27T19:58:20.273Z,24.80
2019-02-27T19:59:24.647Z,24.70
2019-02-27T20:00:20.301Z,23.90
2019-02-27T20:01:21.253Z,23.70
2019-02-27T20:02:21.611Z,23.80
2019-02-27T20:03:20.213Z,23.10
2019-02-27T20:04:20.212Z,23.70
2019-02-27T20:05:20.222Z,24.30
2019-02-27T20:06:20.196Z,24.60
2019-02-27T20:07:20.166Z,24.40
2019-02-27T20:08:20.160Z,25.00
2019-02-27T20:09:20.527Z,24.70
2019-02-27T20:10:20.183Z,25.30
2019-02-27T20:11:20.157Z,25.30
2019-02-27T20:12:20.134Z,26.40
2019-02-27T20:13:20.125Z,25.30
2019-02-27T20:14:20.098Z,25.90
2019-02-27T20:15:20.083Z,27.40
2019-02-27T20:16:20.705Z,28.30
2019-02-27T20:17:20.105Z,28.20
2019-02-27T20:18:20.063Z,28.00
2019-02-27T20:19:22.582Z,27.90
2019-02-27T20:20:21.074Z,27.90
2019-02-27T20:21:20.799Z,28.50
2019-02-27T20:22:20.035Z,29.40
2019-02-27T20:23:20.051Z,29.30
2019-02-27T20:24:19.990Z,29.80
2019-02-27T20:25:20.003Z,31.50
2019-02-27T20:26:20.979Z,30.60
2019-02-27T20:27:19.943Z,32.20
2019-02-27T20:28:19.939Z,30.10
2019-02-27T20:29:20.010Z,30.60
2019-02-27T20:30:19.916Z,28.10
2019-02-27T20:31:21.113Z,29.40
2019-02-27T20:32:19.903Z,28.70
2019-02-27T20:33:22.291Z,28.00
2019-02-27T20:34:19.918Z,28.00
2019-02-27T20:35:20.695Z,29.40
2019-02-27T20:36:19.889Z,28.20
2019-02-27T20:37:19.843Z,27.00
2019-02-27T20:38:19.844Z,29.20
2019-02-27T20:39:23.181Z,27.50
2019-02-27T20:40:19.851Z,30.50
2019-02-27T20:41:19.860Z,26.10
2019-02-27T20:42:19.834Z,26.80
2019-02-27T20:43:19.784Z,26.50
2019-02-27T20:44:19.832Z,27.60
2019-02-27T20:45:19.786Z,25.20
2019-02-27T20:46:19.786Z,26.60
2019-02-27T20:47:21.833Z,27.70
2019-02-27T20:48:19.816Z,27.00
2019-02-27T20:49:19.754Z,26.90
2019-02-27T20:50:21.433Z,27.00
2019-02-27T20:51:20.864Z,27.60
2019-02-27T20:52:21.527Z,25.70
2019-02-27T20:53:21.005Z,28.10
2019-02-27T20:54:19.774Z,29.00
2019-02-27T20:55:19.712Z,26.00
2019-02-27T20:56:19.699Z,28.50
2019-02-27T20:57:19.629Z,28.50
2019-02-27T20:58:22.005Z,25.50
2019-02-27T20:59:24.605Z,26.90
2019-02-27T21:00:20.623Z,27.20
2019-02-27T21:01:19.684Z,26.30
2019-02-27T21:02:19.770Z,26.20
2019-02-27T21:03:19.659Z,27.10
2019-02-27T21:04:19.603Z,26.50
2019-02-27T21:05:22.799Z,26.70
2019-02-27T21:06:21.462Z,28.40
2019-02-27T21:07:22.494Z,27.60
2019-02-27T21:08:19.555Z,27.90
2019-02-27T21:09:19.970Z,29.80
2019-02-27T21:10:20.992Z,30.30
2019-02-27T21:11:21.317Z,29.10
2019-02-27T21:12:22.547Z,27.00
2019-02-27T21:13:29.643Z,34.10
2019-02-27T21:14:20.540Z,30.60
2019-02-27T21:15:24.965Z,29.60
2019-02-27T21:16:19.749Z,31.60
2019-02-27T21:17:21.875Z,35.90
2019-02-27T21:18:19.763Z,32.70
2019-02-27T21:19:19.427Z,32.90
2019-02-27T21:20:19.422Z,31.80
2019-02-27T21:21:26.246Z,34.00
2019-02-27T21:22:25.277Z,33.50
2019-02-27T21:23:21.790Z,32.50
2019-02-27T21:24:19.366Z,38.00
2019-02-27T21:25:19.354Z,34.20
2019-02-27T21:26:19.984Z,37.40
2019-02-27T21:27:19.517Z,33.40
2019-02-27T21:28:21.221Z,34.50
2019-02-27T21:29:21.477Z,34.40
2019-02-27T21:30:19.314Z,38.60
2019-02-27T21:31:26.616Z,35.80
2019-02-27T21:32:20.280Z,37.70
2019-02-27T21:33:20.564Z,34.20
2019-02-27T21:34:20.144Z,38.00
2019-02-27T21:35:19.697Z,36.60
2019-02-27T21:36:19.540Z,37.70
2019-02-27T21:37:19.296Z,37.50
2019-02-27T21:38:21.038Z,39.80
2019-02-27T21:39:19.277Z,36.70
2019-02-27T21:40:19.192Z,39.40
2019-02-27T21:41:19.226Z,36.30
2019-02-27T21:42:20.054Z,39.70
2019-02-27T21:43:19.292Z,39.20
2019-02-27T21:44:25.422Z,39.80
2019-02-27T21:45:21.271Z,38.80
2019-02-27T21:46:19.330Z,39.90
2019-02-27T21:47:19.244Z,39.40
2019-02-27T21:48:23.411Z,39.20
2019-02-27T21:49:19.299Z,38.60
2019-02-27T21:50:19.349Z,39.00
2019-02-27T21:51:19.245Z,39.70
2019-02-27T21:52:23.548Z,40.80
2019-02-27T21:53:19.303Z,41.90
2019-02-27T21:54:19.314Z,41.40
2019-02-27T21:55:19.448Z,38.60
2019-02-27T21:56:19.163Z,42.10
2019-02-27T21:57:19.158Z,43.20